createdAt,value
2023-05-08T00:01:25.373Z,14.23
2023-05-08T00:03:52.807Z,12.75
2023-05-08T00:06:19.549Z,12.90
2023-05-08T00:08:46.178Z,13.30
2023-05-08T00:11:12.663Z,11.87
2023-05-08T00:13:41.327Z,12.63
2023-05-08T00:16:12.663Z,12.23
2023-05-08T00:18:39.662Z,15.07
2023-05-08T00:21:06.684Z,13.05
2023-05-08T00:23:33.808Z,13.30
2023-05-08T00:26:00.447Z,13.48
2023-05-08T00:28:27.207Z,13.30
2023-05-08T00:30:53.885Z,13.10
2023-05-08T00:33:20.423Z,12.65
2023-05-08T00:35:46.925Z,13.63
2023-05-08T00:38:13.826Z,13.82
2023-05-08T00:40:40.421Z,14.18
2023-05-08T00:43:07.040Z,11.25
2023-05-08T00:45:37.664Z,12.57
2023-05-08T00:48:04.717Z,13.70
2023-05-08T00:50:32.593Z,11.25
2023-05-08T00:53:01.146Z,12.27
2023-05-08T00:55:27.905Z,14.40
2023-05-08T00:57:54.501Z,13.07
2023-05-08T01:00:21.816Z,12.57
2023-05-08T01:02:48.822Z,12.50
2023-05-08T01:05:15.502Z,12.73
2023-05-08T01:07:42.518Z,13.52
2023-05-08T01:10:09.546Z,13.32
2023-05-08T01:13:01.593Z,13.43
2023-05-08T01:15:38.614Z,13.32
2023-05-08T01:18:23.207Z,13.02
2023-05-08T01:21:14.796Z,13.77
2023-05-08T01:24:06.453Z,14.77
2023-05-08T01:26:51.215Z,14.40
2023-05-08T01:29:37.844Z,13.65
2023-05-08T01:32:14.395Z,15.10
2023-05-08T01:34:57.571Z,12.27
2023-05-08T01:37:30.861Z,14.25
2023-05-08T01:40:33.531Z,14.50
2023-05-08T01:43:14.386Z,13.90
2023-05-08T01:45:45.745Z,13.27
2023-05-08T01:48:30.467Z,13.85
2023-05-08T01:51:03.843Z,15.10
2023-05-08T01:53:37.808Z,14.57
2023-05-08T01:56:11.295Z,14.40
2023-05-08T01:58:39.174Z,13.50
2023-05-08T02:01:06.167Z,14.13
2023-05-08T02:03:35.067Z,13.70
2023-05-08T02:06:02.752Z,15.70
2023-05-08T02:08:32.283Z,15.70
2023-05-08T02:11:00.840Z,14.20
2023-05-08T02:13:29.068Z,14.30
2023-05-08T02:15:57.255Z,14.52
2023-05-08T02:18:25.604Z,15.90
2023-05-08T02:20:54.433Z,16.42
2023-05-08T02:23:23.298Z,14.85
2023-05-08T02:25:51.198Z,15.32
2023-05-08T02:28:18.868Z,15.32
2023-05-08T02:30:46.350Z,13.63
2023-05-08T02:33:15.056Z,15.00
2023-05-08T02:35:44.426Z,15.93
2023-05-08T02:38:13.101Z,15.55
2023-05-08T02:40:45.891Z,17.33
2023-05-08T02:43:12.974Z,15.30
2023-05-08T02:46:00.672Z,15.18
2023-05-08T02:48:38.067Z,16.20
2023-05-08T02:51:21.204Z,17.23
2023-05-08T02:54:09.986Z,16.02
2023-05-08T02:56:53.065Z,16.07
2023-05-08T02:59:25.761Z,15.45
2023-05-08T03:01:59.354Z,15.10
2023-05-08T03:04:36.616Z,13.77
2023-05-08T03:07:04.485Z,13.25
2023-05-08T03:09:42.915Z,15.47
2023-05-08T03:12:17.044Z,14.18
2023-05-08T03:14:52.872Z,13.75
2023-05-08T03:17:22.772Z,16.20
2023-05-08T03:19:55.042Z,15.32
2023-05-08T03:22:23.000Z,15.93
2023-05-08T03:24:50.905Z,16.08
2023-05-08T03:27:17.823Z,14.98
2023-05-08T03:29:45.776Z,15.40
2023-05-08T03:32:14.048Z,14.43
2023-05-08T03:34:41.607Z,13.97
2023-05-08T03:37:08.480Z,15.63
2023-05-08T03:39:35.210Z,15.65
2023-05-08T03:42:01.978Z,15.85
2023-05-08T03:44:30.171Z,15.52
2023-05-08T03:46:58.380Z,15.43
2023-05-08T03:49:29.691Z,14.27
2023-05-08T03:51:56.869Z,13.43
2023-05-08T03:54:28.422Z,13.43
2023-05-08T03:56:54.944Z,14.18
2023-05-08T03:59:34.303Z,14.70
2023-05-08T04:02:25.233Z,13.52
2023-05-08T04:05:01.974Z,14.20
2023-05-08T04:07:46.051Z,15.20
2023-05-08T04:10:21.596Z,13.38
2023-05-08T04:13:08.674Z,14.93
2023-05-08T04:15:48.471Z,12.55
2023-05-08T04:18:17.575Z,14.80
2023-05-08T04:20:47.908Z,14.73
2023-05-08T04:23:19.708Z,14.00
2023-05-08T04:25:48.368Z,13.37
2023-05-08T04:28:15.923Z,12.75
2023-05-08T04:30:42.557Z,12.90
2023-05-08T04:33:09.676Z,14.80
2023-05-08T04:35:36.435Z,15.50
2023-05-08T04:38:03.103Z,15.07
2023-05-08T04:40:29.877Z,14.05
2023-05-08T04:42:56.972Z,12.48
2023-05-08T04:45:24.101Z,13.30
2023-05-08T04:47:50.810Z,14.25
2023-05-08T04:50:17.446Z,14.60
2023-05-08T04:52:43.991Z,14.38
2023-05-08T04:55:11.270Z,14.13
2023-05-08T04:57:38.857Z,13.70
2023-05-08T05:00:06.593Z,14.48
2023-05-08T05:02:37.376Z,14.40
2023-05-08T05:05:05.770Z,13.27
2023-05-08T05:07:32.354Z,13.27
2023-05-08T05:10:00.608Z,12.88
2023-05-08T05:12:27.972Z,13.32
2023-05-08T05:14:55.055Z,13.70
2023-05-08T05:17:22.494Z,13.23
2023-05-08T05:19:50.406Z,12.55
2023-05-08T05:22:18.134Z,12.38
2023-05-08T05:24:45.010Z,13.77
2023-05-08T05:27:11.931Z,14.50
2023-05-08T05:29:38.501Z,12.32
2023-05-08T05:32:07.120Z,13.18
2023-05-08T05:34:33.981Z,14.20
2023-05-08T05:37:00.570Z,15.05
2023-05-08T05:39:27.147Z,13.43
2023-05-08T05:41:53.665Z,13.05
2023-05-08T05:44:20.438Z,12.88
2023-05-08T05:46:47.699Z,13.35
2023-05-08T05:49:14.393Z,13.68
2023-05-08T05:51:40.919Z,12.53
2023-05-08T05:54:07.775Z,12.98
2023-05-08T05:56:34.764Z,14.13
2023-05-08T05:59:01.280Z,13.30
2023-05-08T06:01:29.184Z,14.32
2023-05-08T06:03:56.510Z,13.80
2023-05-08T06:06:23.286Z,14.32
2023-05-08T06:08:49.805Z,13.23
2023-05-08T06:11:16.459Z,13.77
2023-05-08T06:13:44.077Z,12.70
2023-05-08T06:16:11.949Z,13.03
2023-05-08T06:18:38.597Z,13.90
2023-05-08T06:21:05.310Z,12.63
2023-05-08T06:23:31.889Z,13.35
2023-05-08T06:25:58.517Z,12.75
2023-05-08T06:28:26.070Z,13.17
2023-05-08T06:30:53.207Z,12.95
2023-05-08T06:33:19.834Z,14.35
2023-05-08T06:35:47.766Z,14.77
2023-05-08T06:38:15.010Z,14.02
2023-05-08T06:40:45.215Z,14.17
2023-05-08T06:43:12.641Z,13.25
2023-05-08T06:45:40.132Z,12.63
2023-05-08T06:48:06.808Z,11.70
2023-05-08T06:50:33.484Z,13.05
2023-05-08T06:53:00.019Z,14.83
2023-05-08T06:55:26.810Z,15.50
2023-05-08T06:57:53.316Z,12.07
2023-05-08T07:00:20.324Z,12.63
2023-05-08T07:02:46.946Z,14.00
2023-05-08T07:05:13.795Z,13.77
2023-05-08T07:07:42.546Z,13.98
2023-05-08T07:10:09.379Z,12.82
2023-05-08T07:12:35.897Z,15.43
2023-05-08T07:15:13.821Z,12.70
2023-05-08T07:17:44.967Z,13.20
2023-05-08T07:20:11.590Z,14.70
2023-05-08T07:22:38.167Z,13.55
2023-05-08T07:25:05.399Z,14.98
2023-05-08T07:27:32.006Z,14.20
2023-05-08T07:30:03.728Z,13.27
2023-05-08T07:32:31.738Z,12.93
2023-05-08T07:34:58.363Z,14.43
2023-05-08T07:37:25.207Z,13.45
2023-05-08T07:39:51.721Z,16.30
2023-05-08T07:42:18.359Z,13.67
2023-05-08T07:44:53.569Z,16.70
2023-05-08T07:47:21.468Z,15.65
2023-05-08T07:49:48.025Z,18.60
2023-05-08T07:52:14.552Z,17.35
2023-05-08T07:54:41.065Z,19.40
2023-05-08T07:57:07.578Z,18.48
2023-05-08T07:59:34.167Z,19.23
2023-05-08T08:02:00.710Z,17.58
2023-05-08T08:04:27.858Z,18.33
2023-05-08T08:06:55.193Z,20.43
2023-05-08T08:09:21.733Z,21.05
2023-05-08T08:11:48.436Z,21.45
2023-05-08T08:14:14.945Z,20.00
2023-05-08T08:16:42.610Z,19.75
2023-05-08T08:19:09.181Z,20.43
2023-05-08T08:21:35.708Z,21.42
2023-05-08T08:24:02.289Z,21.50
2023-05-08T08:26:28.964Z,20.17
2023-05-08T08:28:55.503Z,20.73
2023-05-08T08:31:22.148Z,21.77
2023-05-08T08:33:48.671Z,20.48
2023-05-08T08:36:16.154Z,21.90
2023-05-08T08:38:42.753Z,21.45
2023-05-08T08:41:09.284Z,22.05
2023-05-08T08:43:36.421Z,21.73
2023-05-08T08:46:11.597Z,21.88
2023-05-08T08:48:42.693Z,22.77
2023-05-08T08:51:14.689Z,20.92
2023-05-08T08:53:46.199Z,20.10
2023-05-08T08:56:15.526Z,19.73
2023-05-08T08:58:47.922Z,19.88
2023-05-08T09:01:16.688Z,20.77
2023-05-08T09:03:43.452Z,21.38
2023-05-08T09:06:10.249Z,18.30
2023-05-08T09:08:37.497Z,22.90
2023-05-08T09:11:04.105Z,20.27
2023-05-08T09:13:30.857Z,19.55
2023-05-08T09:15:58.799Z,18.30
2023-05-08T09:18:25.326Z,19.23
2023-05-08T09:20:51.899Z,18.97
2023-05-08T09:23:18.596Z,19.45
2023-05-08T09:25:46.923Z,20.17
2023-05-08T09:28:20.702Z,19.95
2023-05-08T09:30:55.256Z,20.50
2023-05-08T09:33:23.658Z,19.83
2023-05-08T09:35:50.447Z,17.75
2023-05-08T09:38:40.503Z,17.02
2023-05-08T09:41:15.791Z,19.40
2023-05-08T09:43:44.464Z,19.48
2023-05-08T09:46:22.254Z,19.57
2023-05-08T09:48:57.105Z,19.08
2023-05-08T09:51:24.937Z,18.15
2023-05-08T09:53:55.958Z,18.90
2023-05-08T09:56:36.779Z,19.63
2023-05-08T09:59:06.308Z,19.93
2023-05-08T10:01:36.766Z,20.73
2023-05-08T10:04:05.655Z,20.98
2023-05-08T10:06:32.541Z,20.27
2023-05-08T10:09:12.663Z,20.10
2023-05-08T10:11:51.973Z,19.10
2023-05-08T10:14:19.845Z,19.98
2023-05-08T10:16:49.230Z,20.17
2023-05-08T10:19:18.799Z,21.08
2023-05-08T10:21:55.236Z,19.58
2023-05-08T10:24:28.093Z,22.57
2023-05-08T10:27:31.946Z,22.88
2023-05-08T10:30:04.209Z,23.80
2023-05-08T10:32:37.675Z,26.58
2023-05-08T10:35:08.079Z,24.85
2023-05-08T10:37:36.321Z,26.33
2023-05-08T10:40:04.165Z,27.55
2023-05-08T10:42:33.257Z,26.88
2023-05-08T10:45:00.251Z,26.42
2023-05-08T10:47:46.087Z,24.60
2023-05-08T10:50:26.643Z,26.07
2023-05-08T10:53:08.910Z,27.33
2023-05-08T10:55:39.509Z,26.63
2023-05-08T10:58:09.466Z,27.33
2023-05-08T11:00:59.566Z,29.08
2023-05-08T11:03:32.025Z,28.93
2023-05-08T11:06:01.697Z,29.08
2023-05-08T11:08:29.928Z,30.60
2023-05-08T11:11:02.427Z,29.70
2023-05-08T11:13:32.584Z,30.77
2023-05-08T11:15:59.228Z,31.67
2023-05-08T11:18:32.447Z,31.27
2023-05-08T11:21:16.133Z,30.00
2023-05-08T11:23:42.845Z,31.00
2023-05-08T11:26:14.015Z,31.30
2023-05-08T11:28:59.252Z,32.77
2023-05-08T11:31:51.994Z,34.38
2023-05-08T11:34:43.687Z,33.60
2023-05-08T11:37:24.421Z,33.15
2023-05-08T11:39:51.203Z,31.85
2023-05-08T11:42:29.453Z,33.23
2023-05-08T11:45:09.921Z,32.38
2023-05-08T11:47:41.582Z,30.10
2023-05-08T11:50:09.477Z,29.17
2023-05-08T11:52:37.005Z,32.55
2023-05-08T11:55:15.658Z,27.33
2023-05-08T11:57:42.176Z,27.00
2023-05-08T12:00:13.435Z,25.67
2023-05-08T12:02:41.816Z,23.88
2023-05-08T12:05:10.222Z,24.15
2023-05-08T12:07:44.542Z,27.30
2023-05-08T12:10:11.527Z,29.15
2023-05-08T12:12:42.561Z,22.38
2023-05-08T12:15:11.567Z,20.55
2023-05-08T12:17:38.614Z,25.23
2023-05-08T12:20:12.117Z,27.53
2023-05-08T12:22:40.656Z,25.77
2023-05-08T12:25:12.974Z,28.63
2023-05-08T12:27:39.733Z,27.05
2023-05-08T12:30:10.803Z,15.35
2023-05-08T12:32:39.349Z,13.73
2023-05-08T12:35:11.067Z,15.00
2023-05-08T12:37:37.909Z,14.60
2023-05-08T12:40:05.974Z,14.43
2023-05-08T12:42:46.576Z,12.15
2023-05-08T12:45:20.376Z,12.50
2023-05-08T12:47:48.389Z,12.07
2023-05-08T12:50:17.394Z,13.30
2023-05-08T12:52:44.413Z,14.52
2023-05-08T12:55:24.124Z,18.25
2023-05-08T12:57:58.512Z,21.23
2023-05-08T13:00:25.238Z,20.20
2023-05-08T13:02:55.509Z,22.65
2023-05-08T13:05:23.351Z,21.90
2023-05-08T13:07:51.273Z,22.23
2023-05-08T13:10:23.900Z,23.90
2023-05-08T13:12:52.292Z,24.33
2023-05-08T13:15:18.870Z,22.83
2023-05-08T13:17:45.412Z,23.40
2023-05-08T13:20:12.169Z,21.63
2023-05-08T13:22:38.840Z,22.93
2023-05-08T13:25:06.063Z,23.42
2023-05-08T13:27:32.563Z,25.30
2023-05-08T13:29:59.056Z,27.48
2023-05-08T13:32:25.642Z,27.27
2023-05-08T13:34:54.117Z,27.90
2023-05-08T13:37:24.131Z,29.30
2023-05-08T13:39:50.804Z,28.65
2023-05-08T13:42:17.305Z,27.70
2023-05-08T13:44:43.874Z,28.73
2023-05-08T13:47:10.496Z,28.90
2023-05-08T13:49:37.035Z,28.38
2023-05-08T13:52:03.732Z,29.67
2023-05-08T13:54:30.206Z,27.40
2023-05-08T13:56:56.768Z,27.77
2023-05-08T13:59:23.454Z,27.00
2023-05-08T14:01:50.097Z,27.35
2023-05-08T14:04:16.811Z,26.75
2023-05-08T14:06:43.394Z,24.23
2023-05-08T14:09:10.014Z,22.10
2023-05-08T14:11:36.565Z,20.60
2023-05-08T14:14:03.102Z,18.48
2023-05-08T14:16:29.666Z,18.40
2023-05-08T14:18:56.283Z,20.05
2023-05-08T14:21:22.812Z,19.95
2023-05-08T14:23:49.368Z,18.13
2023-05-08T14:26:15.972Z,17.00
2023-05-08T14:28:42.530Z,16.75
2023-05-08T14:31:09.063Z,15.75
2023-05-08T14:33:35.623Z,17.13
2023-05-08T14:36:02.141Z,17.87
2023-05-08T14:38:28.642Z,20.08
2023-05-08T14:40:55.137Z,21.13
2023-05-08T14:43:22.288Z,20.67
2023-05-08T14:45:49.029Z,20.50
2023-05-08T14:48:15.721Z,21.00
2023-05-08T14:50:42.607Z,21.45
2023-05-08T14:53:09.257Z,22.05
2023-05-08T14:55:36.191Z,22.38
2023-05-08T14:58:02.842Z,22.50
2023-05-08T15:00:29.441Z,23.57
2023-05-08T15:02:56.063Z,24.92
2023-05-08T15:05:22.856Z,23.80
2023-05-08T15:07:50.227Z,24.77
2023-05-08T15:10:16.822Z,24.25
2023-05-08T15:12:43.417Z,24.57
2023-05-08T15:15:10.371Z,23.52
2023-05-08T15:17:37.008Z,23.88
2023-05-08T15:20:04.226Z,25.92
2023-05-08T15:22:30.809Z,26.42
2023-05-08T15:25:02.354Z,24.70
2023-05-08T15:27:29.687Z,23.65
2023-05-08T15:29:56.490Z,25.48
2023-05-08T15:32:23.386Z,24.90
2023-05-08T15:34:50.007Z,26.92
2023-05-08T15:37:16.536Z,25.30
2023-05-08T15:39:43.336Z,23.67
2023-05-08T15:42:09.948Z,23.42
2023-05-08T15:44:54.074Z,24.58
2023-05-08T15:47:23.107Z,25.25
2023-05-08T15:49:50.752Z,24.33
2023-05-08T15:52:18.720Z,23.67
2023-05-08T15:54:46.376Z,22.00
2023-05-08T15:57:13.145Z,21.65
2023-05-08T15:59:39.673Z,23.75
2023-05-08T16:02:06.476Z,22.73
2023-05-08T16:04:33.066Z,21.23
2023-05-08T16:06:59.913Z,20.95
2023-05-08T16:09:26.731Z,23.88
2023-05-08T16:11:53.310Z,22.25
2023-05-08T16:14:20.176Z,22.27
2023-05-08T16:16:47.321Z,23.10
2023-05-08T16:19:14.831Z,24.33
2023-05-08T16:21:41.398Z,22.92
2023-05-08T16:24:07.961Z,23.35
2023-05-08T16:26:34.471Z,24.20
2023-05-08T16:29:01.064Z,23.55
2023-05-08T16:31:27.589Z,23.05
2023-05-08T16:33:54.108Z,23.42
2023-05-08T16:36:20.682Z,22.40
2023-05-08T16:38:47.271Z,22.27
2023-05-08T16:41:14.065Z,22.15
2023-05-08T16:43:40.552Z,23.20
2023-05-08T16:46:07.451Z,23.20
2023-05-08T16:48:34.430Z,25.00
2023-05-08T16:51:00.941Z,23.77
2023-05-08T16:53:27.434Z,24.48
2023-05-08T16:55:56.856Z,24.85
2023-05-08T16:58:23.524Z,26.40
2023-05-08T17:00:50.140Z,28.15
2023-05-08T17:03:16.741Z,26.80
2023-05-08T17:05:43.324Z,27.55
2023-05-08T17:08:11.647Z,27.08
2023-05-08T17:10:39.350Z,29.35
2023-05-08T17:13:05.897Z,30.08
2023-05-08T17:15:32.534Z,30.23
2023-05-08T17:17:59.358Z,25.85
2023-05-08T17:20:26.219Z,28.25
2023-05-08T17:22:54.059Z,28.23
2023-05-08T17:25:22.401Z,31.02
2023-05-08T17:27:49.066Z,29.50
2023-05-08T17:30:16.892Z,29.00
2023-05-08T17:32:43.782Z,26.92
2023-05-08T17:35:10.419Z,27.77
2023-05-08T17:37:37.195Z,30.00
2023-05-08T17:40:03.928Z,31.43
2023-05-08T17:42:30.735Z,29.40
2023-05-08T17:44:57.485Z,30.80
2023-05-08T17:47:24.101Z,30.90
2023-05-08T17:49:50.841Z,31.15
2023-05-08T17:52:17.421Z,30.00
2023-05-08T17:54:43.951Z,29.65
2023-05-08T17:57:10.477Z,29.75
2023-05-08T17:59:37.081Z,29.38
2023-05-08T18:02:03.805Z,29.85
2023-05-08T18:04:30.568Z,29.00
2023-05-08T18:06:57.116Z,28.70
2023-05-08T18:09:23.680Z,30.50
2023-05-08T18:11:50.223Z,30.23
2023-05-08T18:14:16.742Z,31.58
2023-05-08T18:16:43.329Z,29.43
2023-05-08T18:19:09.973Z,29.15
2023-05-08T18:21:36.527Z,28.45
2023-05-08T18:24:03.168Z,27.25
2023-05-08T18:26:29.708Z,27.67
2023-05-08T18:28:56.252Z,28.60
2023-05-08T18:31:22.811Z,28.35
2023-05-08T18:33:49.338Z,27.13
2023-05-08T18:36:15.858Z,28.15
2023-05-08T18:38:42.471Z,30.20
2023-05-08T18:41:09.024Z,31.20
2023-05-08T18:43:35.562Z,28.65
2023-05-08T18:46:12.557Z,30.80
2023-05-08T18:48:41.800Z,30.05
2023-05-08T18:51:08.309Z,31.05
2023-05-08T18:53:38.434Z,30.27
2023-05-08T18:56:05.636Z,26.25
2023-05-08T18:58:32.162Z,22.65
2023-05-08T19:00:59.211Z,21.20
2023-05-08T19:03:26.223Z,21.45
2023-05-08T19:05:54.365Z,19.83
2023-05-08T19:08:20.946Z,17.67
2023-05-08T19:10:47.458Z,18.10
2023-05-08T19:13:14.085Z,16.13
2023-05-08T19:15:40.818Z,15.43
2023-05-08T19:18:07.520Z,15.27
2023-05-08T19:20:34.096Z,15.88
2023-05-08T19:23:00.721Z,16.52
2023-05-08T19:25:27.218Z,16.65
2023-05-08T19:27:53.785Z,15.25
2023-05-08T19:30:20.316Z,15.13
2023-05-08T19:32:46.825Z,14.95
2023-05-08T19:35:13.541Z,14.40
2023-05-08T19:37:40.289Z,14.25
2023-05-08T19:40:07.547Z,12.63
2023-05-08T19:42:34.030Z,11.60
2023-05-08T19:45:01.293Z,12.43
2023-05-08T19:47:27.821Z,11.02
2023-05-08T19:49:54.418Z,11.38
2023-05-08T19:52:20.932Z,12.23
2023-05-08T19:54:47.486Z,12.80
2023-05-08T19:57:14.090Z,13.00
2023-05-08T19:59:40.712Z,11.38
2023-05-08T20:02:07.272Z,12.90
2023-05-08T20:04:40.057Z,12.77
2023-05-08T20:07:18.772Z,12.13
2023-05-08T20:09:45.386Z,11.73
2023-05-08T20:12:12.018Z,11.68
2023-05-08T20:14:38.522Z,13.43
2023-05-08T20:17:05.267Z,13.38
2023-05-08T20:19:31.802Z,13.40
2023-05-08T20:21:58.378Z,13.07
2023-05-08T20:24:24.890Z,13.48
2023-05-08T20:26:54.346Z,12.55
2023-05-08T20:29:21.148Z,13.45
2023-05-08T20:31:47.713Z,12.47
2023-05-08T20:34:14.232Z,12.82
2023-05-08T20:36:40.962Z,13.23
2023-05-08T20:39:07.715Z,13.63
2023-05-08T20:41:34.200Z,13.10
2023-05-08T20:44:00.989Z,12.87
2023-05-08T20:46:27.545Z,13.63
2023-05-08T20:48:54.206Z,14.40
2023-05-08T20:51:20.761Z,14.10
2023-05-08T20:53:47.425Z,15.25
2023-05-08T20:56:15.706Z,12.43
2023-05-08T20:58:43.879Z,13.05
2023-05-08T21:01:11.284Z,12.48
2023-05-08T21:03:38.707Z,13.23
2023-05-08T21:06:05.280Z,12.32
2023-05-08T21:08:31.950Z,13.10
2023-05-08T21:10:58.491Z,12.93
2023-05-08T21:13:25.249Z,14.23
2023-05-08T21:15:51.940Z,13.60
2023-05-08T21:18:18.528Z,13.75
2023-05-08T21:20:49.775Z,14.20
2023-05-08T21:23:20.441Z,16.33
2023-05-08T21:25:47.524Z,13.57
2023-05-08T21:28:15.128Z,14.30
2023-05-08T21:30:42.479Z,13.65
2023-05-08T21:33:10.350Z,13.07
2023-05-08T21:35:37.126Z,12.02
2023-05-08T21:38:03.687Z,11.82
2023-05-08T21:40:30.491Z,13.00
2023-05-08T21:42:57.004Z,14.35
2023-05-08T21:45:23.528Z,13.80
2023-05-08T21:47:50.274Z,15.43
2023-05-08T21:50:16.854Z,15.07
2023-05-08T21:52:43.366Z,14.57
2023-05-08T21:55:10.074Z,15.25
2023-05-08T21:57:36.626Z,16.43
2023-05-08T22:00:05.285Z,15.93
2023-05-08T22:02:31.940Z,12.45
2023-05-08T22:04:58.514Z,13.45
2023-05-08T22:07:25.076Z,12.65
2023-05-08T22:09:51.844Z,12.23
2023-05-08T22:12:18.687Z,13.90
2023-05-08T22:14:45.333Z,15.43
2023-05-08T22:17:11.844Z,13.38
2023-05-08T22:19:38.391Z,14.10
2023-05-08T22:22:04.933Z,11.83
2023-05-08T22:24:31.687Z,13.80
2023-05-08T22:26:59.327Z,13.30
2023-05-08T22:29:26.025Z,14.80
2023-05-08T22:31:52.560Z,14.20
2023-05-08T22:34:19.123Z,16.27
2023-05-08T22:36:45.662Z,17.30
2023-05-08T22:39:12.237Z,13.75
2023-05-08T22:41:39.337Z,18.13
2023-05-08T22:44:06.636Z,15.88
2023-05-08T22:46:34.718Z,11.83
2023-05-08T22:49:01.425Z,19.27
2023-05-08T22:51:27.990Z,18.42
2023-05-08T22:53:54.766Z,18.08
2023-05-08T22:56:21.259Z,18.13
2023-05-08T22:58:47.785Z,18.53
2023-05-08T23:01:15.923Z,17.70
2023-05-08T23:03:42.462Z,16.77
2023-05-08T23:06:08.956Z,18.17
2023-05-08T23:08:35.483Z,18.67
2023-05-08T23:11:02.091Z,19.00
2023-05-08T23:13:28.677Z,20.77
2023-05-08T23:15:55.323Z,24.95
2023-05-08T23:18:22.031Z,21.20
2023-05-08T23:20:48.629Z,22.65
2023-05-08T23:23:15.167Z,25.03
2023-05-08T23:25:42.776Z,22.30
2023-05-08T23:28:09.299Z,22.42
2023-05-08T23:30:35.861Z,24.10
2023-05-08T23:33:02.435Z,22.27
2023-05-08T23:35:29.038Z,25.43
2023-05-08T23:37:55.897Z,25.58
2023-05-08T23:40:22.575Z,22.60
2023-05-08T23:42:49.075Z,26.05
2023-05-08T23:45:15.923Z,24.30
2023-05-08T23:47:42.545Z,28.63
2023-05-08T23:50:09.598Z,26.63
2023-05-08T23:52:36.135Z,21.45
2023-05-08T23:55:02.752Z,23.55
2023-05-08T23:57:29.305Z,23.05
2023-05-08T23:59:55.874Z,28.07
